Raisin, Texas
Current Conditions -  °F | °C
As of 8:51 AM on Saturday 25 Oct 2014 (Local Time) from KVCT Reporting Station
Haze Haze  
Wind Chill: 19°   Ceiling: Unl
Heat Index: 19°   Visibility: 4mi
Dew Point: 17°   Wind: 5mph
Humidity: 87%   Direction: 350°N
Pressure: 30.18"   Gusts: NA
Location:  28.877°N, 97.189°W
Report Text: KVCT 251351Z 35004KT 4SM BR CLR 19/17 A3018 RMK AO2 SLP217 T01890167
Loading
Personal Weather Stations






























Interactive Weather Map
Tropical Storm Tracking
New forecast layout! Learn more

10-Day Weather Forecast

Advertisements
Track Severe Weather on mobile